sensor_id;sensor_type;location;lat;lon;timestamp;temperature;humidity
18930;DHT22;43305;52.186;5.598;2022-09-09T00:01:59;15.20;99.90
18930;DHT22;43305;52.186;5.598;2022-09-09T00:04:28;15.20;99.90
18930;DHT22;43305;52.186;5.598;2022-09-09T00:07:03;15.20;99.90
18930;DHT22;43305;52.186;5.598;2022-09-09T00:09:34;15.10;99.90
18930;DHT22;43305;52.186;5.598;2022-09-09T00:12:15;15.10;99.90
18930;DHT22;43305;52.186;5.598;2022-09-09T00:14:48;15.10;99.90
18930;DHT22;43305;52.186;5.598;2022-09-09T00:17:30;15.10;99.90
18930;DHT22;43305;52.186;5.598;2022-09-09T00:20:13;15.10;99.90
18930;DHT22;43305;52.186;5.598;2022-09-09T00:25:51;15.10;99.90
18930;DHT22;43305;52.186;5.598;2022-09-09T00:28:25;15.10;99.90
18930;DHT22;43305;52.186;5.598;2022-09-09T00:30:56;15.10;99.90
18930;DHT22;43305;52.186;5.598;2022-09-09T00:33:30;15.10;99.90
18930;DHT22;43305;52.186;5.598;2022-09-09T00:36:01;15.10;99.90
18930;DHT22;43305;52.186;5.598;2022-09-09T00:38:36;15.10;99.90
18930;DHT22;43305;52.186;5.598;2022-09-09T00:41:11;15.00;99.90
18930;DHT22;43305;52.186;5.598;2022-09-09T00:43:56;15.10;99.90
18930;DHT22;43305;52.186;5.598;2022-09-09T00:46:48;15.10;99.90
18930;DHT22;43305;52.186;5.598;2022-09-09T00:49:26;15.00;99.90
18930;DHT22;43305;52.186;5.598;2022-09-09T00:52:08;15.00;99.90
18930;DHT22;43305;52.186;5.598;2022-09-09T00:54:52;15.00;99.90
18930;DHT22;43305;52.186;5.598;2022-09-09T00:57:37;15.10;99.90
18930;DHT22;43305;52.186;5.598;2022-09-09T01:00:19;15.00;99.90
18930;DHT22;43305;52.186;5.598;2022-09-09T01:02:53;15.00;99.90
18930;DHT22;43305;52.186;5.598;2022-09-09T01:05:33;15.00;99.90
18930;DHT22;43305;52.186;5.598;2022-09-09T01:08:05;14.90;99.90
18930;DHT22;43305;52.186;5.598;2022-09-09T01:10:41;14.90;99.90
18930;DHT22;43305;52.186;5.598;2022-09-09T01:13:21;14.90;99.90
18930;DHT22;43305;52.186;5.598;2022-09-09T01:15:51;14.90;99.90
18930;DHT22;43305;52.186;5.598;2022-09-09T01:18:23;14.80;99.90
18930;DHT22;43305;52.186;5.598;2022-09-09T01:21:06;14.80;99.90
18930;DHT22;43305;52.186;5.598;2022-09-09T01:23:47;14.80;99.90
18930;DHT22;43305;52.186;5.598;2022-09-09T01:26:19;14.90;99.90
18930;DHT22;43305;52.186;5.598;2022-09-09T01:28:56;14.80;99.90
18930;DHT22;43305;52.186;5.598;2022-09-09T01:31:28;14.80;99.90
18930;DHT22;43305;52.186;5.598;2022-09-09T01:33:57;14.70;99.90
18930;DHT22;43305;52.186;5.598;2022-09-09T01:36:29;14.70;99.90
18930;DHT22;43305;52.186;5.598;2022-09-09T01:38:59;14.60;99.90
18930;DHT22;43305;52.186;5.598;2022-09-09T01:41:28;14.60;99.90
18930;DHT22;43305;52.186;5.598;2022-09-09T01:43:58;14.60;99.90
18930;DHT22;43305;52.186;5.598;2022-09-09T01:46:28;14.60;99.90
18930;DHT22;43305;52.186;5.598;2022-09-09T01:48:56;14.50;99.90
18930;DHT22;43305;52.186;5.598;2022-09-09T01:51:26;14.50;99.90
18930;DHT22;43305;52.186;5.598;2022-09-09T01:53:56;14.50;99.90
18930;DHT22;43305;52.186;5.598;2022-09-09T01:56:40;14.40;99.90
18930;DHT22;43305;52.186;5.598;2022-09-09T01:59:22;14.40;99.90
18930;DHT22;43305;52.186;5.598;2022-09-09T02:02:00;14.40;99.90
18930;DHT22;43305;52.186;5.598;2022-09-09T02:04:37;14.40;99.90
18930;DHT22;43305;52.186;5.598;2022-09-09T02:07:13;14.40;99.90
18930;DHT22;43305;52.186;5.598;2022-09-09T02:09:49;14.40;99.90
18930;DHT22;43305;52.186;5.598;2022-09-09T02:12:22;14.40;99.90
18930;DHT22;43305;52.186;5.598;2022-09-09T02:14:55;14.30;99.90
18930;DHT22;43305;52.186;5.598;2022-09-09T02:17:27;14.30;99.90
18930;DHT22;43305;52.186;5.598;2022-09-09T02:19:59;14.30;99.90
18930;DHT22;43305;52.186;5.598;2022-09-09T02:22:31;14.30;99.90
18930;DHT22;43305;52.186;5.598;2022-09-09T02:25:00;14.30;99.90
18930;DHT22;43305;52.186;5.598;2022-09-09T02:27:29;14.20;99.90
18930;DHT22;43305;52.186;5.598;2022-09-09T02:29:57;14.20;99.90
18930;DHT22;43305;52.186;5.598;2022-09-09T02:32:29;14.20;99.90
18930;DHT22;43305;52.186;5.598;2022-09-09T02:35:06;14.20;99.90
18930;DHT22;43305;52.186;5.598;2022-09-09T02:37:39;14.20;99.90
18930;DHT22;43305;52.186;5.598;2022-09-09T02:40:12;14.20;99.90
18930;DHT22;43305;52.186;5.598;2022-09-09T02:42:43;14.20;99.90
18930;DHT22;43305;52.186;5.598;2022-09-09T02:45:14;14.10;99.90
18930;DHT22;43305;52.186;5.598;2022-09-09T02:47:50;14.00;99.90
18930;DHT22;43305;52.186;5.598;2022-09-09T02:50:24;14.00;99.90
18930;DHT22;43305;52.186;5.598;2022-09-09T02:53:06;14.00;99.90
18930;DHT22;43305;52.186;5.598;2022-09-09T02:55:44;14.00;99.90
18930;DHT22;43305;52.186;5.598;2022-09-09T02:58:17;14.00;99.90
18930;DHT22;43305;52.186;5.598;2022-09-09T03:00:46;14.00;99.90
18930;DHT22;43305;52.186;5.598;2022-09-09T03:03:14;13.90;99.90
18930;DHT22;43305;52.186;5.598;2022-09-09T03:05:45;14.00;99.90
18930;DHT22;43305;52.186;5.598;2022-09-09T03:08:18;13.90;99.90
18930;DHT22;43305;52.186;5.598;2022-09-09T03:11:05;13.90;99.90
18930;DHT22;43305;52.186;5.598;2022-09-09T03:13:33;13.90;99.90
18930;DHT22;43305;52.186;5.598;2022-09-09T03:16:04;13.90;99.90
18930;DHT22;43305;52.186;5.598;2022-09-09T03:18:31;13.90;99.90
18930;DHT22;43305;52.186;5.598;2022-09-09T03:21:09;13.80;99.90
18930;DHT22;43305;52.186;5.598;2022-09-09T03:23:36;13.80;99.90
18930;DHT22;43305;52.186;5.598;2022-09-09T03:26:08;13.80;99.90
18930;DHT22;43305;52.186;5.598;2022-09-09T03:28:37;13.80;99.90
18930;DHT22;43305;52.186;5.598;2022-09-09T03:31:08;13.80;99.90
18930;DHT22;43305;52.186;5.598;2022-09-09T03:33:37;13.80;99.90
18930;DHT22;43305;52.186;5.598;2022-09-09T03:36:10;13.80;99.90
18930;DHT22;43305;52.186;5.598;2022-09-09T03:38:37;13.80;99.90
18930;DHT22;43305;52.186;5.598;2022-09-09T03:41:04;13.80;99.90
18930;DHT22;43305;52.186;5.598;2022-09-09T03:43:33;13.80;99.90
18930;DHT22;43305;52.186;5.598;2022-09-09T03:46:01;13.80;99.90
18930;DHT22;43305;52.186;5.598;2022-09-09T03:48:33;13.70;99.90
18930;DHT22;43305;52.186;5.598;2022-09-09T03:51:04;13.70;99.90
18930;DHT22;43305;52.186;5.598;2022-09-09T03:53:36;13.70;99.90
18930;DHT22;43305;52.186;5.598;2022-09-09T03:56:13;13.70;99.90
18930;DHT22;43305;52.186;5.598;2022-09-09T03:58:49;13.70;99.90
18930;DHT22;43305;52.186;5.598;2022-09-09T04:01:23;13.80;99.90
18930;DHT22;43305;52.186;5.598;2022-09-09T04:03:53;13.80;99.90
18930;DHT22;43305;52.186;5.598;2022-09-09T04:06:26;13.70;99.90
18930;DHT22;43305;52.186;5.598;2022-09-09T04:09:10;13.80;99.90
18930;DHT22;43305;52.186;5.598;2022-09-09T04:11:48;13.80;99.90
18930;DHT22;43305;52.186;5.598;2022-09-09T04:14:27;13.80;99.90
18930;DHT22;43305;52.186;5.598;2022-09-09T04:16:55;13.80;99.90
18930;DHT22;43305;52.186;5.598;2022-09-09T04:19:25;13.80;99.90
18930;DHT22;43305;52.186;5.598;2022-09-09T04:21:54;13.80;99.90
18930;DHT22;43305;52.186;5.598;2022-09-09T04:24:23;13.80;99.90
18930;DHT22;43305;52.186;5.598;2022-09-09T04:26:52;13.80;99.90
18930;DHT22;43305;52.186;5.598;2022-09-09T04:29:20;13.80;99.90
18930;DHT22;43305;52.186;5.598;2022-09-09T04:31:48;13.70;99.90
18930;DHT22;43305;52.186;5.598;2022-09-09T04:34:20;13.80;99.90
18930;DHT22;43305;52.186;5.598;2022-09-09T04:36:49;13.80;99.90
18930;DHT22;43305;52.186;5.598;2022-09-09T04:39:20;13.80;99.90
18930;DHT22;43305;52.186;5.598;2022-09-09T04:41:49;13.80;99.90
18930;DHT22;43305;52.186;5.598;2022-09-09T04:44:19;13.80;99.90
18930;DHT22;43305;52.186;5.598;2022-09-09T04:46:51;13.90;99.90
18930;DHT22;43305;52.186;5.598;2022-09-09T04:49:20;13.80;99.90
18930;DHT22;43305;52.186;5.598;2022-09-09T04:51:51;13.90;99.90
18930;DHT22;43305;52.186;5.598;2022-09-09T04:54:18;13.80;99.90
18930;DHT22;43305;52.186;5.598;2022-09-09T04:56:47;13.90;99.90
18930;DHT22;43305;52.186;5.598;2022-09-09T04:59:19;13.90;99.90
18930;DHT22;43305;52.186;5.598;2022-09-09T05:01:54;13.90;99.90
18930;DHT22;43305;52.186;5.598;2022-09-09T05:04:22;13.90;99.90
18930;DHT22;43305;52.186;5.598;2022-09-09T05:06:49;13.90;99.90
18930;DHT22;43305;52.186;5.598;2022-09-09T05:09:20;13.90;99.90
18930;DHT22;43305;52.186;5.598;2022-09-09T05:11:58;13.90;99.90
18930;DHT22;43305;52.186;5.598;2022-09-09T05:14:28;13.90;99.90
18930;DHT22;43305;52.186;5.598;2022-09-09T05:16:57;13.90;99.90
18930;DHT22;43305;52.186;5.598;2022-09-09T05:19:25;13.90;99.90
18930;DHT22;43305;52.186;5.598;2022-09-09T05:21:52;13.90;99.90
18930;DHT22;43305;52.186;5.598;2022-09-09T05:24:21;13.90;99.90
18930;DHT22;43305;52.186;5.598;2022-09-09T05:26:51;13.90;99.90
18930;DHT22;43305;52.186;5.598;2022-09-09T05:29:21;14.00;99.90
18930;DHT22;43305;52.186;5.598;2022-09-09T05:31:52;14.00;99.90
18930;DHT22;43305;52.186;5.598;2022-09-09T05:34:19;14.00;99.90
18930;DHT22;43305;52.186;5.598;2022-09-09T05:36:50;14.00;99.90
18930;DHT22;43305;52.186;5.598;2022-09-09T05:39:23;14.00;99.90
18930;DHT22;43305;52.186;5.598;2022-09-09T05:41:52;14.00;99.90
18930;DHT22;43305;52.186;5.598;2022-09-09T05:44:21;14.00;99.90
18930;DHT22;43305;52.186;5.598;2022-09-09T05:46:53;14.00;99.90
18930;DHT22;43305;52.186;5.598;2022-09-09T05:49:26;14.00;99.90
18930;DHT22;43305;52.186;5.598;2022-09-09T05:51:56;14.00;99.90
18930;DHT22;43305;52.186;5.598;2022-09-09T05:54:27;14.00;99.90
18930;DHT22;43305;52.186;5.598;2022-09-09T05:56:54;14.00;99.90
18930;DHT22;43305;52.186;5.598;2022-09-09T05:59:29;14.00;99.90
18930;DHT22;43305;52.186;5.598;2022-09-09T06:01:57;14.10;99.90
18930;DHT22;43305;52.186;5.598;2022-09-09T06:04:26;14.10;99.90
18930;DHT22;43305;52.186;5.598;2022-09-09T06:06:53;14.20;99.90
18930;DHT22;43305;52.186;5.598;2022-09-09T06:09:21;14.20;99.90
18930;DHT22;43305;52.186;5.598;2022-09-09T06:11:48;14.20;99.90
18930;DHT22;43305;52.186;5.598;2022-09-09T06:14:15;14.30;99.90
18930;DHT22;43305;52.186;5.598;2022-09-09T06:16:46;14.40;99.90
18930;DHT22;43305;52.186;5.598;2022-09-09T06:19:14;14.40;99.90
18930;DHT22;43305;52.186;5.598;2022-09-09T06:21:44;14.50;99.90
18930;DHT22;43305;52.186;5.598;2022-09-09T06:24:11;14.50;99.90
18930;DHT22;43305;52.186;5.598;2022-09-09T06:26:45;14.60;99.90
18930;DHT22;43305;52.186;5.598;2022-09-09T06:29:12;14.70;99.90
18930;DHT22;43305;52.186;5.598;2022-09-09T06:31:39;14.70;99.90
18930;DHT22;43305;52.186;5.598;2022-09-09T06:34:08;14.80;99.90
18930;DHT22;43305;52.186;5.598;2022-09-09T06:36:36;14.80;99.90
18930;DHT22;43305;52.186;5.598;2022-09-09T06:39:04;14.90;99.90
18930;DHT22;43305;52.186;5.598;2022-09-09T06:41:32;14.90;99.90
18930;DHT22;43305;52.186;5.598;2022-09-09T06:44:02;15.00;99.90
18930;DHT22;43305;52.186;5.598;2022-09-09T06:46:30;15.00;99.90
18930;DHT22;43305;52.186;5.598;2022-09-09T06:48:58;15.10;99.90
18930;DHT22;43305;52.186;5.598;2022-09-09T06:51:29;15.10;99.90
18930;DHT22;43305;52.186;5.598;2022-09-09T06:53:58;15.20;99.90
18930;DHT22;43305;52.186;5.598;2022-09-09T06:56:26;15.20;99.90
18930;DHT22;43305;52.186;5.598;2022-09-09T06:58:59;15.30;99.90
18930;DHT22;43305;52.186;5.598;2022-09-09T07:01:32;15.40;99.90
18930;DHT22;43305;52.186;5.598;2022-09-09T07:04:00;15.50;99.90
18930;DHT22;43305;52.186;5.598;2022-09-09T07:06:29;15.70;99.90
18930;DHT22;43305;52.186;5.598;2022-09-09T07:08:59;15.80;99.90
18930;DHT22;43305;52.186;5.598;2022-09-09T07:11:30;15.90;99.90
18930;DHT22;43305;52.186;5.598;2022-09-09T07:13:58;15.90;99.90
18930;DHT22;43305;52.186;5.598;2022-09-09T07:16:27;16.00;99.90
18930;DHT22;43305;52.186;5.598;2022-09-09T07:19:04;16.10;99.90
18930;DHT22;43305;52.186;5.598;2022-09-09T07:21:41;16.20;99.90
18930;DHT22;43305;52.186;5.598;2022-09-09T07:24:09;16.20;99.90
18930;DHT22;43305;52.186;5.598;2022-09-09T07:26:38;16.20;99.90
18930;DHT22;43305;52.186;5.598;2022-09-09T07:29:05;16.20;99.90
18930;DHT22;43305;52.186;5.598;2022-09-09T07:31:43;16.30;99.90
18930;DHT22;43305;52.186;5.598;2022-09-09T07:36:39;16.30;99.90
18930;DHT22;43305;52.186;5.598;2022-09-09T07:39:08;16.30;99.90
18930;DHT22;43305;52.186;5.598;2022-09-09T07:41:38;16.40;99.90
18930;DHT22;43305;52.186;5.598;2022-09-09T07:44:06;16.50;99.90
18930;DHT22;43305;52.186;5.598;2022-09-09T07:46:34;16.50;99.90
18930;DHT22;43305;52.186;5.598;2022-09-09T07:49:03;16.60;99.90
18930;DHT22;43305;52.186;5.598;2022-09-09T07:51:32;16.60;99.90
18930;DHT22;43305;52.186;5.598;2022-09-09T07:54:01;16.60;99.90
18930;DHT22;43305;52.186;5.598;2022-09-09T07:56:29;16.50;99.90
18930;DHT22;43305;52.186;5.598;2022-09-09T07:58:57;16.50;99.90
18930;DHT22;43305;52.186;5.598;2022-09-09T08:01:27;16.50;99.90
18930;DHT22;43305;52.186;5.598;2022-09-09T08:03:56;16.50;99.90
18930;DHT22;43305;52.186;5.598;2022-09-09T08:06:26;16.60;99.90
18930;DHT22;43305;52.186;5.598;2022-09-09T08:08:54;16.70;99.90
18930;DHT22;43305;52.186;5.598;2022-09-09T08:11:23;16.70;99.90
18930;DHT22;43305;52.186;5.598;2022-09-09T08:13:51;16.80;99.90
18930;DHT22;43305;52.186;5.598;2022-09-09T08:16:20;16.80;99.90
18930;DHT22;43305;52.186;5.598;2022-09-09T08:18:48;16.80;99.90
18930;DHT22;43305;52.186;5.598;2022-09-09T08:21:17;16.70;99.90
18930;DHT22;43305;52.186;5.598;2022-09-09T08:23:46;16.70;99.90
18930;DHT22;43305;52.186;5.598;2022-09-09T08:26:15;16.60;99.90
18930;DHT22;43305;52.186;5.598;2022-09-09T08:28:43;16.60;99.90
18930;DHT22;43305;52.186;5.598;2022-09-09T08:31:11;16.60;99.90
18930;DHT22;43305;52.186;5.598;2022-09-09T08:33:39;16.60;99.90
18930;DHT22;43305;52.186;5.598;2022-09-09T08:36:09;16.60;99.90
18930;DHT22;43305;52.186;5.598;2022-09-09T08:38:36;16.70;99.90
18930;DHT22;43305;52.186;5.598;2022-09-09T08:41:18;16.70;99.90
18930;DHT22;43305;52.186;5.598;2022-09-09T08:44:00;16.70;99.90
18930;DHT22;43305;52.186;5.598;2022-09-09T08:46:36;16.80;99.90
18930;DHT22;43305;52.186;5.598;2022-09-09T08:49:15;16.80;99.90
18930;DHT22;43305;52.186;5.598;2022-09-09T08:51:44;16.80;99.90
18930;DHT22;43305;52.186;5.598;2022-09-09T08:54:11;16.80;99.90
18930;DHT22;43305;52.186;5.598;2022-09-09T08:56:39;16.80;99.90
18930;DHT22;43305;52.186;5.598;2022-09-09T08:59:07;16.80;99.90
18930;DHT22;43305;52.186;5.598;2022-09-09T09:01:47;16.80;99.90
18930;DHT22;43305;52.186;5.598;2022-09-09T09:04:28;16.80;99.90
18930;DHT22;43305;52.186;5.598;2022-09-09T09:07:06;16.80;99.90
18930;DHT22;43305;52.186;5.598;2022-09-09T09:09:42;16.90;99.90
18930;DHT22;43305;52.186;5.598;2022-09-09T09:12:16;16.90;99.90
18930;DHT22;43305;52.186;5.598;2022-09-09T09:14:46;16.90;99.90
18930;DHT22;43305;52.186;5.598;2022-09-09T09:17:16;16.80;99.90
18930;DHT22;43305;52.186;5.598;2022-09-09T09:19:43;16.90;99.90
18930;DHT22;43305;52.186;5.598;2022-09-09T09:22:17;16.90;99.90
18930;DHT22;43305;52.186;5.598;2022-09-09T09:24:51;16.90;99.90
18930;DHT22;43305;52.186;5.598;2022-09-09T09:27:29;16.90;99.90
18930;DHT22;43305;52.186;5.598;2022-09-09T09:30:02;16.90;99.90
18930;DHT22;43305;52.186;5.598;2022-09-09T09:32:35;16.90;99.90
18930;DHT22;43305;52.186;5.598;2022-09-09T09:35:06;16.90;99.90
18930;DHT22;43305;52.186;5.598;2022-09-09T09:37:37;16.90;99.90
18930;DHT22;43305;52.186;5.598;2022-09-09T09:40:10;16.90;99.90
18930;DHT22;43305;52.186;5.598;2022-09-09T09:42:48;16.90;99.90
18930;DHT22;43305;52.186;5.598;2022-09-09T09:45:18;16.90;99.90
18930;DHT22;43305;52.186;5.598;2022-09-09T09:47:58;16.90;99.90
18930;DHT22;43305;52.186;5.598;2022-09-09T09:50:25;17.00;99.90
18930;DHT22;43305;52.186;5.598;2022-09-09T09:52:54;17.00;99.90
18930;DHT22;43305;52.186;5.598;2022-09-09T09:55:23;17.10;99.90
18930;DHT22;43305;52.186;5.598;2022-09-09T09:57:51;17.10;99.90
18930;DHT22;43305;52.186;5.598;2022-09-09T10:00:22;17.10;99.90
18930;DHT22;43305;52.186;5.598;2022-09-09T10:02:50;17.20;99.90
18930;DHT22;43305;52.186;5.598;2022-09-09T10:05:25;17.20;99.90
18930;DHT22;43305;52.186;5.598;2022-09-09T10:08:09;17.20;99.90
18930;DHT22;43305;52.186;5.598;2022-09-09T10:10:46;17.20;99.90
18930;DHT22;43305;52.186;5.598;2022-09-09T10:13:20;17.20;99.90
18930;DHT22;43305;52.186;5.598;2022-09-09T10:15:59;17.20;99.90
18930;DHT22;43305;52.186;5.598;2022-09-09T10:18:41;17.30;99.90
18930;DHT22;43305;52.186;5.598;2022-09-09T10:21:20;17.30;99.90
18930;DHT22;43305;52.186;5.598;2022-09-09T10:24:07;17.30;99.90
18930;DHT22;43305;52.186;5.598;2022-09-09T10:26:46;17.40;99.90
18930;DHT22;43305;52.186;5.598;2022-09-09T10:29:34;17.40;99.90
18930;DHT22;43305;52.186;5.598;2022-09-09T10:32:16;17.40;99.90
18930;DHT22;43305;52.186;5.598;2022-09-09T10:34:56;17.30;99.90
18930;DHT22;43305;52.186;5.598;2022-09-09T10:37:37;17.30;99.90
18930;DHT22;43305;52.186;5.598;2022-09-09T10:40:26;17.20;99.90
18930;DHT22;43305;52.186;5.598;2022-09-09T10:43:01;17.20;99.90
18930;DHT22;43305;52.186;5.598;2022-09-09T10:45:40;17.20;99.90
18930;DHT22;43305;52.186;5.598;2022-09-09T10:48:30;17.20;99.90
18930;DHT22;43305;52.186;5.598;2022-09-09T10:51:11;17.20;99.90
18930;DHT22;43305;52.186;5.598;2022-09-09T10:53:53;17.20;99.90
18930;DHT22;43305;52.186;5.598;2022-09-09T10:56:26;17.30;99.90
18930;DHT22;43305;52.186;5.598;2022-09-09T10:58:58;17.30;99.90
18930;DHT22;43305;52.186;5.598;2022-09-09T11:01:31;17.20;99.90
18930;DHT22;43305;52.186;5.598;2022-09-09T11:04:01;17.00;99.90
18930;DHT22;43305;52.186;5.598;2022-09-09T11:06:34;16.90;99.90
18930;DHT22;43305;52.186;5.598;2022-09-09T11:09:03;16.80;99.90
18930;DHT22;43305;52.186;5.598;2022-09-09T11:11:38;16.80;99.90
18930;DHT22;43305;52.186;5.598;2022-09-09T11:14:14;16.80;99.90
18930;DHT22;43305;52.186;5.598;2022-09-09T11:16:47;16.90;99.90
18930;DHT22;43305;52.186;5.598;2022-09-09T11:19:25;17.00;99.90
18930;DHT22;43305;52.186;5.598;2022-09-09T11:21:53;17.10;99.90
18930;DHT22;43305;52.186;5.598;2022-09-09T11:24:26;17.30;99.90
18930;DHT22;43305;52.186;5.598;2022-09-09T11:27:00;17.40;99.90
18930;DHT22;43305;52.186;5.598;2022-09-09T11:32:34;17.70;99.90
18930;DHT22;43305;52.186;5.598;2022-09-09T11:35:20;18.00;99.90
18930;DHT22;43305;52.186;5.598;2022-09-09T11:38:01;18.20;99.90
18930;DHT22;43305;52.186;5.598;2022-09-09T11:40:31;18.20;99.90
18930;DHT22;43305;52.186;5.598;2022-09-09T11:43:03;18.20;99.90
18930;DHT22;43305;52.186;5.598;2022-09-09T11:45:31;18.00;99.90
18930;DHT22;43305;52.186;5.598;2022-09-09T11:48:03;17.90;99.90
18930;DHT22;43305;52.186;5.598;2022-09-09T11:50:34;18.10;99.90
18930;DHT22;43305;52.186;5.598;2022-09-09T11:53:19;18.20;99.90
18930;DHT22;43305;52.186;5.598;2022-09-09T11:56:08;18.40;99.90
18930;DHT22;43305;52.186;5.598;2022-09-09T11:58:42;18.60;99.90
18930;DHT22;43305;52.186;5.598;2022-09-09T12:01:27;18.70;99.90
18930;DHT22;43305;52.186;5.598;2022-09-09T12:06:59;18.50;99.90
18930;DHT22;43305;52.186;5.598;2022-09-09T12:12:30;18.30;99.90
18930;DHT22;43305;52.186;5.598;2022-09-09T12:15:16;18.20;99.90
18930;DHT22;43305;52.186;5.598;2022-09-09T12:17:49;18.10;99.90
18930;DHT22;43305;52.186;5.598;2022-09-09T12:20:18;18.10;99.90
18930;DHT22;43305;52.186;5.598;2022-09-09T12:25:58;18.10;99.90
18930;DHT22;43305;52.186;5.598;2022-09-09T12:28:42;18.10;99.90
18930;DHT22;43305;52.186;5.598;2022-09-09T12:31:19;18.10;99.90
18930;DHT22;43305;52.186;5.598;2022-09-09T12:33:53;18.10;99.90
18930;DHT22;43305;52.186;5.598;2022-09-09T12:36:24;18.00;99.90
18930;DHT22;43305;52.186;5.598;2022-09-09T12:39:09;18.00;99.90
18930;DHT22;43305;52.186;5.598;2022-09-09T12:41:38;17.80;99.90
18930;DHT22;43305;52.186;5.598;2022-09-09T12:44:06;17.60;99.90
18930;DHT22;43305;52.186;5.598;2022-09-09T12:46:40;17.50;99.90
18930;DHT22;43305;52.186;5.598;2022-09-09T12:49:26;17.40;99.90
18930;DHT22;43305;52.186;5.598;2022-09-09T12:51:57;17.30;99.90
18930;DHT22;43305;52.186;5.598;2022-09-09T12:54:27;17.20;99.90
18930;DHT22;43305;52.186;5.598;2022-09-09T12:56:56;17.20;99.90
18930;DHT22;43305;52.186;5.598;2022-09-09T12:59:25;17.20;99.90
18930;DHT22;43305;52.186;5.598;2022-09-09T13:01:57;17.40;99.90
18930;DHT22;43305;52.186;5.598;2022-09-09T13:04:24;17.70;99.90
18930;DHT22;43305;52.186;5.598;2022-09-09T13:06:51;17.90;99.90
18930;DHT22;43305;52.186;5.598;2022-09-09T13:09:19;17.90;99.90
18930;DHT22;43305;52.186;5.598;2022-09-09T13:11:50;17.80;99.90
18930;DHT22;43305;52.186;5.598;2022-09-09T13:14:28;17.80;99.90
18930;DHT22;43305;52.186;5.598;2022-09-09T13:16:59;17.80;99.90
18930;DHT22;43305;52.186;5.598;2022-09-09T13:19:31;17.80;99.90
18930;DHT22;43305;52.186;5.598;2022-09-09T13:22:11;17.90;99.90
18930;DHT22;43305;52.186;5.598;2022-09-09T13:24:40;18.00;99.90
18930;DHT22;43305;52.186;5.598;2022-09-09T13:27:26;18.10;99.90
18930;DHT22;43305;52.186;5.598;2022-09-09T13:29:54;18.10;99.90
18930;DHT22;43305;52.186;5.598;2022-09-09T13:32:23;18.00;99.90
18930;DHT22;43305;52.186;5.598;2022-09-09T13:34:51;18.00;99.90
18930;DHT22;43305;52.186;5.598;2022-09-09T13:37:23;17.90;99.90
18930;DHT22;43305;52.186;5.598;2022-09-09T13:39:52;17.90;99.90
18930;DHT22;43305;52.186;5.598;2022-09-09T13:42:26;17.70;99.90
18930;DHT22;43305;52.186;5.598;2022-09-09T13:44:55;17.80;99.90
18930;DHT22;43305;52.186;5.598;2022-09-09T13:47:27;17.80;99.90
18930;DHT22;43305;52.186;5.598;2022-09-09T13:49:55;17.90;99.90
18930;DHT22;43305;52.186;5.598;2022-09-09T13:52:22;18.00;99.90
18930;DHT22;43305;52.186;5.598;2022-09-09T13:54:49;18.00;99.90
18930;DHT22;43305;52.186;5.598;2022-09-09T13:57:18;18.00;99.90
18930;DHT22;43305;52.186;5.598;2022-09-09T13:59:48;18.20;99.90
18930;DHT22;43305;52.186;5.598;2022-09-09T14:02:18;18.10;99.90
18930;DHT22;43305;52.186;5.598;2022-09-09T14:04:46;18.10;99.90
18930;DHT22;43305;52.186;5.598;2022-09-09T14:07:18;18.20;99.90
18930;DHT22;43305;52.186;5.598;2022-09-09T14:09:45;18.10;99.90
18930;DHT22;43305;52.186;5.598;2022-09-09T14:12:16;18.10;99.90
18930;DHT22;43305;52.186;5.598;2022-09-09T14:14:44;18.10;99.90
18930;DHT22;43305;52.186;5.598;2022-09-09T14:17:12;18.10;99.90
18930;DHT22;43305;52.186;5.598;2022-09-09T14:19:39;18.10;99.90
18930;DHT22;43305;52.186;5.598;2022-09-09T14:22:09;18.10;99.90
18930;DHT22;43305;52.186;5.598;2022-09-09T14:24:36;18.10;99.90
18930;DHT22;43305;52.186;5.598;2022-09-09T14:27:03;18.20;99.90
18930;DHT22;43305;52.186;5.598;2022-09-09T14:29:30;18.20;99.90
18930;DHT22;43305;52.186;5.598;2022-09-09T14:31:58;18.20;99.90
18930;DHT22;43305;52.186;5.598;2022-09-09T14:34:27;18.30;99.90
18930;DHT22;43305;52.186;5.598;2022-09-09T14:36:54;18.30;99.90
18930;DHT22;43305;52.186;5.598;2022-09-09T14:39:24;18.40;99.90
18930;DHT22;43305;52.186;5.598;2022-09-09T14:41:50;18.40;99.90
18930;DHT22;43305;52.186;5.598;2022-09-09T14:44:17;18.40;99.90
18930;DHT22;43305;52.186;5.598;2022-09-09T14:46:44;18.40;99.90
18930;DHT22;43305;52.186;5.598;2022-09-09T14:49:11;18.40;99.90
18930;DHT22;43305;52.186;5.598;2022-09-09T14:51:39;18.30;99.90
18930;DHT22;43305;52.186;5.598;2022-09-09T14:54:07;18.30;99.90
18930;DHT22;43305;52.186;5.598;2022-09-09T14:56:34;18.30;99.90
18930;DHT22;43305;52.186;5.598;2022-09-09T14:59:02;18.30;99.90
18930;DHT22;43305;52.186;5.598;2022-09-09T15:01:30;18.30;99.90
18930;DHT22;43305;52.186;5.598;2022-09-09T15:04:02;18.30;99.90
18930;DHT22;43305;52.186;5.598;2022-09-09T15:06:31;18.30;99.90
18930;DHT22;43305;52.186;5.598;2022-09-09T15:09:00;18.30;99.90
18930;DHT22;43305;52.186;5.598;2022-09-09T15:11:29;18.30;99.90
18930;DHT22;43305;52.186;5.598;2022-09-09T15:14:08;18.20;99.90
18930;DHT22;43305;52.186;5.598;2022-09-09T15:16:38;18.20;99.90
18930;DHT22;43305;52.186;5.598;2022-09-09T15:19:05;18.20;99.90
18930;DHT22;43305;52.186;5.598;2022-09-09T15:21:34;18.20;99.90
18930;DHT22;43305;52.186;5.598;2022-09-09T15:24:03;18.20;99.90
18930;DHT22;43305;52.186;5.598;2022-09-09T15:26:30;18.20;99.90
18930;DHT22;43305;52.186;5.598;2022-09-09T15:28:58;18.20;99.90
18930;DHT22;43305;52.186;5.598;2022-09-09T15:31:26;18.10;99.90
18930;DHT22;43305;52.186;5.598;2022-09-09T15:33:55;17.90;99.90
18930;DHT22;43305;52.186;5.598;2022-09-09T15:36:28;17.80;99.90
18930;DHT22;43305;52.186;5.598;2022-09-09T15:38:57;17.70;99.90
18930;DHT22;43305;52.186;5.598;2022-09-09T15:41:26;17.70;99.90
18930;DHT22;43305;52.186;5.598;2022-09-09T15:43:54;17.70;99.90
18930;DHT22;43305;52.186;5.598;2022-09-09T15:46:24;17.80;99.90
18930;DHT22;43305;52.186;5.598;2022-09-09T15:48:53;18.00;99.90
18930;DHT22;43305;52.186;5.598;2022-09-09T15:51:23;18.00;99.90
18930;DHT22;43305;52.186;5.598;2022-09-09T15:53:54;18.20;99.90
18930;DHT22;43305;52.186;5.598;2022-09-09T15:56:22;18.40;99.90
18930;DHT22;43305;52.186;5.598;2022-09-09T15:58:50;18.60;99.90
18930;DHT22;43305;52.186;5.598;2022-09-09T16:01:18;18.60;99.90
18930;DHT22;43305;52.186;5.598;2022-09-09T16:03:45;18.60;99.90
18930;DHT22;43305;52.186;5.598;2022-09-09T16:06:13;18.60;99.90
18930;DHT22;43305;52.186;5.598;2022-09-09T16:08:42;18.40;99.90
18930;DHT22;43305;52.186;5.598;2022-09-09T16:11:11;18.30;99.90
18930;DHT22;43305;52.186;5.598;2022-09-09T16:13:41;18.20;99.90
18930;DHT22;43305;52.186;5.598;2022-09-09T16:16:11;18.00;99.90
18930;DHT22;43305;52.186;5.598;2022-09-09T16:18:40;18.10;99.90